sensor_id;sensor_type;location;lat;lon;timestamp;P1;durP1;ratioP1;P2;durP2;ratioP2
47225;SDS011;32965;64.142;-21.912;2024-01-27T00:09:30;4.87;;;0.70;;
47225;SDS011;32965;64.142;-21.912;2024-01-27T10:35:02;13.53;;;2.13;;
47225;SDS011;32965;64.142;-21.912;2024-01-27T10:50:27;5.70;;;0.70;;
47225;SDS011;32965;64.142;-21.912;2024-01-27T11:08:26;3.90;;;0.70;;
47225;SDS011;32965;64.142;-21.912;2024-01-27T11:18:43;4.30;;;0.63;;
47225;SDS011;32965;64.142;-21.912;2024-01-27T11:26:21;3.97;;;0.93;;
47225;SDS011;32965;64.142;-21.912;2024-01-27T11:28:50;7.30;;;0.60;;
47225;SDS011;32965;64.142;-21.912;2024-01-27T11:39:31;5.00;;;0.73;;
47225;SDS011;32965;64.142;-21.912;2024-01-27T11:42:06;6.17;;;1.40;;
47225;SDS011;32965;64.142;-21.912;2024-01-27T11:44:38;11.40;;;1.30;;
47225;SDS011;32965;64.142;-21.912;2024-01-27T11:47:05;10.40;;;2.60;;
47225;SDS011;32965;64.142;-21.912;2024-01-27T11:49:32;10.93;;;2.33;;
47225;SDS011;32965;64.142;-21.912;2024-01-27T11:54:34;12.83;;;2.10;;
47225;SDS011;32965;64.142;-21.912;2024-01-27T11:57:03;13.77;;;2.30;;
47225;SDS011;32965;64.142;-21.912;2024-01-27T11:59:30;13.37;;;2.60;;
47225;SDS011;32965;64.142;-21.912;2024-01-27T12:01:56;25.53;;;4.23;;
47225;SDS011;32965;64.142;-21.912;2024-01-27T12:04:22;14.93;;;3.60;;
47225;SDS011;32965;64.142;-21.912;2024-01-27T12:06:48;16.10;;;3.57;;
47225;SDS011;32965;64.142;-21.912;2024-01-27T12:09:15;21.67;;;4.37;;
47225;SDS011;32965;64.142;-21.912;2024-01-27T12:11:42;26.97;;;3.60;;
47225;SDS011;32965;64.142;-21.912;2024-01-27T12:14:08;19.00;;;3.73;;
47225;SDS011;32965;64.142;-21.912;2024-01-27T12:16:35;25.73;;;5.73;;
47225;SDS011;32965;64.142;-21.912;2024-01-27T12:26:49;14.33;;;3.10;;
47225;SDS011;32965;64.142;-21.912;2024-01-27T12:29:15;16.43;;;2.80;;
47225;SDS011;32965;64.142;-21.912;2024-01-27T12:36:52;16.33;;;3.20;;
47225;SDS011;32965;64.142;-21.912;2024-01-27T12:41:56;23.67;;;4.07;;
47225;SDS011;32965;64.142;-21.912;2024-01-27T12:52:04;16.70;;;3.50;;
47225;SDS011;32965;64.142;-21.912;2024-01-27T12:54:31;22.23;;;5.00;;
47225;SDS011;32965;64.142;-21.912;2024-01-27T12:56:57;23.13;;;3.77;;
47225;SDS011;32965;64.142;-21.912;2024-01-27T12:59:24;18.03;;;4.73;;
47225;SDS011;32965;64.142;-21.912;2024-01-27T13:01:57;18.93;;;3.53;;
47225;SDS011;32965;64.142;-21.912;2024-01-27T13:06:59;17.40;;;3.27;;
47225;SDS011;32965;64.142;-21.912;2024-01-27T13:09:25;16.57;;;2.70;;
47225;SDS011;32965;64.142;-21.912;2024-01-27T13:11:51;19.17;;;3.80;;
47225;SDS011;32965;64.142;-21.912;2024-01-27T13:14:18;17.97;;;4.00;;
47225;SDS011;32965;64.142;-21.912;2024-01-27T13:16:46;14.40;;;2.83;;
47225;SDS011;32965;64.142;-21.912;2024-01-27T13:19:12;18.77;;;3.13;;
47225;SDS011;32965;64.142;-21.912;2024-01-27T13:21:38;19.97;;;3.10;;
47225;SDS011;32965;64.142;-21.912;2024-01-27T13:24:06;18.03;;;2.67;;
47225;SDS011;32965;64.142;-21.912;2024-01-27T13:26:35;19.97;;;3.47;;
47225;SDS011;32965;64.142;-21.912;2024-01-27T13:29:04;16.07;;;3.67;;
47225;SDS011;32965;64.142;-21.912;2024-01-27T13:31:30;15.90;;;3.40;;
47225;SDS011;32965;64.142;-21.912;2024-01-27T13:33:56;17.33;;;3.20;;
47225;SDS011;32965;64.142;-21.912;2024-01-27T13:39:44;13.53;;;2.50;;
47225;SDS011;32965;64.142;-21.912;2024-01-27T13:42:11;18.93;;;2.63;;
47225;SDS011;32965;64.142;-21.912;2024-01-27T13:44:37;11.60;;;2.40;;
47225;SDS011;32965;64.142;-21.912;2024-01-27T13:47:04;14.13;;;2.07;;
47225;SDS011;32965;64.142;-21.912;2024-01-27T13:49:33;17.83;;;4.67;;
47225;SDS011;32965;64.142;-21.912;2024-01-27T13:51:59;8.35;;;2.78;;
47225;SDS011;32965;64.142;-21.912;2024-01-27T13:54:24;12.07;;;2.83;;
47225;SDS011;32965;64.142;-21.912;2024-01-27T13:56:50;15.97;;;2.93;;
47225;SDS011;32965;64.142;-21.912;2024-01-27T13:59:16;13.80;;;3.30;;
47225;SDS011;32965;64.142;-21.912;2024-01-27T14:01:42;19.27;;;3.17;;
47225;SDS011;32965;64.142;-21.912;2024-01-27T14:04:08;13.27;;;2.80;;
47225;SDS011;32965;64.142;-21.912;2024-01-27T14:06:34;15.80;;;3.47;;
47225;SDS011;32965;64.142;-21.912;2024-01-27T14:09:01;15.73;;;2.77;;
47225;SDS011;32965;64.142;-21.912;2024-01-27T14:11:28;9.43;;;2.60;;
47225;SDS011;32965;64.142;-21.912;2024-01-27T14:13:53;15.17;;;2.90;;
47225;SDS011;32965;64.142;-21.912;2024-01-27T14:16:19;14.43;;;2.47;;
47225;SDS011;32965;64.142;-21.912;2024-01-27T14:18:46;13.33;;;2.00;;
47225;SDS011;32965;64.142;-21.912;2024-01-27T14:21:11;10.43;;;2.63;;
47225;SDS011;32965;64.142;-21.912;2024-01-27T14:23:37;11.03;;;2.20;;
47225;SDS011;32965;64.142;-21.912;2024-01-27T14:26:03;20.00;;;3.33;;
47225;SDS011;32965;64.142;-21.912;2024-01-27T14:28:32;18.67;;;3.93;;
47225;SDS011;32965;64.142;-21.912;2024-01-27T14:31:00;13.03;;;3.90;;
47225;SDS011;32965;64.142;-21.912;2024-01-27T14:33:26;15.87;;;2.47;;
47225;SDS011;32965;64.142;-21.912;2024-01-27T14:35:52;12.83;;;3.30;;
47225;SDS011;32965;64.142;-21.912;2024-01-27T14:38:18;21.13;;;2.93;;
47225;SDS011;32965;64.142;-21.912;2024-01-27T14:40:45;15.80;;;4.33;;
47225;SDS011;32965;64.142;-21.912;2024-01-27T14:43:11;15.50;;;2.43;;
47225;SDS011;32965;64.142;-21.912;2024-01-27T14:45:37;16.80;;;3.43;;
47225;SDS011;32965;64.142;-21.912;2024-01-27T14:48:04;7.90;;;2.20;;
47225;SDS011;32965;64.142;-21.912;2024-01-27T14:50:30;14.87;;;2.50;;
47225;SDS011;32965;64.142;-21.912;2024-01-27T14:52:56;13.77;;;3.37;;
47225;SDS011;32965;64.142;-21.912;2024-01-27T14:55:22;13.20;;;3.00;;
47225;SDS011;32965;64.142;-21.912;2024-01-27T14:57:48;10.50;;;2.47;;
47225;SDS011;32965;64.142;-21.912;2024-01-27T15:00:13;14.83;;;3.30;;
47225;SDS011;32965;64.142;-21.912;2024-01-27T15:02:40;12.47;;;2.93;;
47225;SDS011;32965;64.142;-21.912;2024-01-27T15:05:09;11.02;;;2.10;;
47225;SDS011;32965;64.142;-21.912;2024-01-27T15:07:34;9.90;;;1.87;;
47225;SDS011;32965;64.142;-21.912;2024-01-27T15:10:01;15.57;;;2.83;;
47225;SDS011;32965;64.142;-21.912;2024-01-27T15:12:27;12.97;;;2.63;;
47225;SDS011;32965;64.142;-21.912;2024-01-27T15:14:53;12.73;;;2.17;;
47225;SDS011;32965;64.142;-21.912;2024-01-27T15:17:19;18.07;;;2.63;;
47225;SDS011;32965;64.142;-21.912;2024-01-27T15:19:45;17.57;;;2.57;;
47225;SDS011;32965;64.142;-21.912;2024-01-27T15:22:11;21.67;;;3.87;;
47225;SDS011;32965;64.142;-21.912;2024-01-27T15:24:37;14.43;;;2.03;;
47225;SDS011;32965;64.142;-21.912;2024-01-27T15:27:04;11.87;;;2.50;;
47225;SDS011;32965;64.142;-21.912;2024-01-27T15:29:30;11.13;;;2.13;;
47225;SDS011;32965;64.142;-21.912;2024-01-27T15:31:56;11.90;;;2.10;;
47225;SDS011;32965;64.142;-21.912;2024-01-27T15:34:22;14.57;;;2.80;;
47225;SDS011;32965;64.142;-21.912;2024-01-27T15:36:48;16.93;;;2.77;;
47225;SDS011;32965;64.142;-21.912;2024-01-27T15:39:14;16.53;;;2.87;;
47225;SDS011;32965;64.142;-21.912;2024-01-27T15:41:40;19.73;;;3.63;;
47225;SDS011;32965;64.142;-21.912;2024-01-27T15:44:06;11.50;;;2.37;;
47225;SDS011;32965;64.142;-21.912;2024-01-27T15:46:32;14.97;;;3.17;;
47225;SDS011;32965;64.142;-21.912;2024-01-27T15:48:58;12.07;;;2.00;;
47225;SDS011;32965;64.142;-21.912;2024-01-27T15:51:24;11.07;;;2.07;;
47225;SDS011;32965;64.142;-21.912;2024-01-27T15:53:50;16.47;;;2.97;;
47225;SDS011;32965;64.142;-21.912;2024-01-27T15:56:16;17.80;;;3.33;;
47225;SDS011;32965;64.142;-21.912;2024-01-27T15:58:42;9.53;;;1.70;;
47225;SDS011;32965;64.142;-21.912;2024-01-27T16:01:08;10.90;;;2.53;;
47225;SDS011;32965;64.142;-21.912;2024-01-27T16:03:35;9.50;;;1.53;;
47225;SDS011;32965;64.142;-21.912;2024-01-27T16:06:01;8.93;;;2.83;;
47225;SDS011;32965;64.142;-21.912;2024-01-27T16:08:27;10.17;;;1.77;;
47225;SDS011;32965;64.142;-21.912;2024-01-27T16:10:53;16.63;;;2.10;;
47225;SDS011;32965;64.142;-21.912;2024-01-27T16:13:19;12.53;;;2.03;;
47225;SDS011;32965;64.142;-21.912;2024-01-27T16:15:45;12.40;;;2.43;;
47225;SDS011;32965;64.142;-21.912;2024-01-27T16:18:11;11.73;;;2.03;;
47225;SDS011;32965;64.142;-21.912;2024-01-27T16:20:37;6.93;;;1.63;;
47225;SDS011;32965;64.142;-21.912;2024-01-27T16:23:03;16.23;;;2.10;;
47225;SDS011;32965;64.142;-21.912;2024-01-27T16:25:30;12.50;;;2.47;;
47225;SDS011;32965;64.142;-21.912;2024-01-27T16:27:56;6.67;;;1.90;;
47225;SDS011;32965;64.142;-21.912;2024-01-27T16:30:22;14.57;;;2.80;;
47225;SDS011;32965;64.142;-21.912;2024-01-27T16:32:48;11.03;;;1.57;;
47225;SDS011;32965;64.142;-21.912;2024-01-27T16:35:14;5.07;;;1.37;;
47225;SDS011;32965;64.142;-21.912;2024-01-27T16:37:40;15.90;;;2.23;;
47225;SDS011;32965;64.142;-21.912;2024-01-27T16:40:06;14.10;;;2.27;;
47225;SDS011;32965;64.142;-21.912;2024-01-27T16:42:33;13.13;;;2.13;;
47225;SDS011;32965;64.142;-21.912;2024-01-27T16:45:01;12.48;;;2.08;;
47225;SDS011;32965;64.142;-21.912;2024-01-27T16:47:27;13.53;;;2.23;;
47225;SDS011;32965;64.142;-21.912;2024-01-27T16:49:53;15.53;;;2.40;;
47225;SDS011;32965;64.142;-21.912;2024-01-27T16:52:19;10.53;;;2.77;;
47225;SDS011;32965;64.142;-21.912;2024-01-27T16:54:46;11.53;;;2.47;;
47225;SDS011;32965;64.142;-21.912;2024-01-27T16:57:12;10.53;;;2.93;;
47225;SDS011;32965;64.142;-21.912;2024-01-27T16:59:38;11.33;;;1.60;;
47225;SDS011;32965;64.142;-21.912;2024-01-27T17:02:04;11.60;;;2.67;;
47225;SDS011;32965;64.142;-21.912;2024-01-27T17:04:31;8.20;;;2.00;;
47225;SDS011;32965;64.142;-21.912;2024-01-27T17:10:05;6.00;;;1.90;;
47225;SDS011;32965;64.142;-21.912;2024-01-27T17:16:09;15.67;;;2.53;;
47225;SDS011;32965;64.142;-21.912;2024-01-27T17:18:36;10.20;;;2.43;;
47225;SDS011;32965;64.142;-21.912;2024-01-27T17:23:47;16.93;;;3.23;;
47225;SDS011;32965;64.142;-21.912;2024-01-27T17:26:13;13.20;;;3.30;;
47225;SDS011;32965;64.142;-21.912;2024-01-27T17:28:41;16.27;;;2.50;;
47225;SDS011;32965;64.142;-21.912;2024-01-27T17:31:07;10.73;;;2.30;;
47225;SDS011;32965;64.142;-21.912;2024-01-27T17:33:33;15.30;;;2.90;;
47225;SDS011;32965;64.142;-21.912;2024-01-27T17:35:59;15.80;;;2.93;;
47225;SDS011;32965;64.142;-21.912;2024-01-27T17:38:25;15.83;;;3.03;;
47225;SDS011;32965;64.142;-21.912;2024-01-27T17:40:52;16.97;;;2.93;;
47225;SDS011;32965;64.142;-21.912;2024-01-27T17:43:18;13.37;;;3.70;;
47225;SDS011;32965;64.142;-21.912;2024-01-27T17:45:44;14.43;;;3.27;;
47225;SDS011;32965;64.142;-21.912;2024-01-27T17:50:46;11.07;;;2.53;;
47225;SDS011;32965;64.142;-21.912;2024-01-27T17:53:12;11.67;;;2.60;;
47225;SDS011;32965;64.142;-21.912;2024-01-27T17:55:40;15.77;;;2.78;;
47225;SDS011;32965;64.142;-21.912;2024-01-27T18:03:18;15.60;;;3.20;;
47225;SDS011;32965;64.142;-21.912;2024-01-27T18:08:20;10.00;;;2.57;;
47225;SDS011;32965;64.142;-21.912;2024-01-27T18:10:46;16.40;;;2.60;;
47225;SDS011;32965;64.142;-21.912;2024-01-27T18:18:26;9.47;;;2.27;;
47225;SDS011;32965;64.142;-21.912;2024-01-27T18:23:28;11.90;;;2.27;;
47225;SDS011;32965;64.142;-21.912;2024-01-27T18:25:54;14.03;;;2.87;;
47225;SDS011;32965;64.142;-21.912;2024-01-27T18:28:20;15.43;;;2.30;;
47225;SDS011;32965;64.142;-21.912;2024-01-27T18:30:47;14.33;;;3.90;;
47225;SDS011;32965;64.142;-21.912;2024-01-27T18:33:13;8.63;;;2.33;;
47225;SDS011;32965;64.142;-21.912;2024-01-27T18:35:39;19.27;;;3.60;;
47225;SDS011;32965;64.142;-21.912;2024-01-27T18:38:06;15.70;;;3.33;;
47225;SDS011;32965;64.142;-21.912;2024-01-27T18:40:32;8.57;;;2.20;;
47225;SDS011;32965;64.142;-21.912;2024-01-27T18:42:59;10.57;;;3.40;;
47225;SDS011;32965;64.142;-21.912;2024-01-27T18:45:25;12.07;;;3.33;;
47225;SDS011;32965;64.142;-21.912;2024-01-27T18:47:51;11.90;;;3.00;;
47225;SDS011;32965;64.142;-21.912;2024-01-27T18:50:17;11.33;;;2.87;;
47225;SDS011;32965;64.142;-21.912;2024-01-27T18:52:45;7.83;;;2.57;;
47225;SDS011;32965;64.142;-21.912;2024-01-27T18:55:18;10.13;;;2.50;;
47225;SDS011;32965;64.142;-21.912;2024-01-27T18:57:44;15.63;;;3.13;;
47225;SDS011;32965;64.142;-21.912;2024-01-27T19:00:10;12.37;;;3.00;;
47225;SDS011;32965;64.142;-21.912;2024-01-27T19:02:37;9.80;;;2.73;;
47225;SDS011;32965;64.142;-21.912;2024-01-27T19:05:03;12.77;;;3.13;;
47225;SDS011;32965;64.142;-21.912;2024-01-27T19:07:32;9.27;;;2.50;;
47225;SDS011;32965;64.142;-21.912;2024-01-27T19:09:58;13.70;;;3.17;;
47225;SDS011;32965;64.142;-21.912;2024-01-27T19:12:24;9.13;;;1.90;;
47225;SDS011;32965;64.142;-21.912;2024-01-27T19:14:51;15.90;;;3.07;;
47225;SDS011;32965;64.142;-21.912;2024-01-27T19:17:17;6.70;;;2.20;;
47225;SDS011;32965;64.142;-21.912;2024-01-27T19:19:42;8.17;;;2.17;;
47225;SDS011;32965;64.142;-21.912;2024-01-27T19:22:08;9.87;;;2.17;;
47225;SDS011;32965;64.142;-21.912;2024-01-27T19:30:41;10.30;;;2.83;;
47225;SDS011;32965;64.142;-21.912;2024-01-27T19:33:08;11.27;;;2.77;;
47225;SDS011;32965;64.142;-21.912;2024-01-27T19:35:34;7.30;;;2.00;;
47225;SDS011;32965;64.142;-21.912;2024-01-27T19:38:00;11.23;;;2.73;;
47225;SDS011;32965;64.142;-21.912;2024-01-27T19:40:29;9.30;;;2.88;;
47225;SDS011;32965;64.142;-21.912;2024-01-27T19:42:56;5.60;;;1.80;;
47225;SDS011;32965;64.142;-21.912;2024-01-27T19:45:23;10.50;;;2.60;;
47225;SDS011;32965;64.142;-21.912;2024-01-27T19:47:49;6.63;;;2.70;;
47225;SDS011;32965;64.142;-21.912;2024-01-27T19:50:14;10.93;;;2.17;;
47225;SDS011;32965;64.142;-21.912;2024-01-27T19:52:40;3.83;;;1.57;;
47225;SDS011;32965;64.142;-21.912;2024-01-27T19:55:14;10.23;;;3.47;;
47225;SDS011;32965;64.142;-21.912;2024-01-27T19:57:40;18.77;;;6.27;;
47225;SDS011;32965;64.142;-21.912;2024-01-27T20:00:06;12.60;;;4.60;;
47225;SDS011;32965;64.142;-21.912;2024-01-27T20:08:35;10.83;;;3.93;;
47225;SDS011;32965;64.142;-21.912;2024-01-27T20:11:01;8.50;;;2.57;;
47225;SDS011;32965;64.142;-21.912;2024-01-27T20:13:27;7.83;;;2.40;;
47225;SDS011;32965;64.142;-21.912;2024-01-27T20:15:52;13.87;;;3.87;;
47225;SDS011;32965;64.142;-21.912;2024-01-27T20:18:18;9.97;;;3.53;;
47225;SDS011;32965;64.142;-21.912;2024-01-27T20:20:44;10.70;;;5.27;;
47225;SDS011;32965;64.142;-21.912;2024-01-27T20:23:10;7.23;;;3.37;;
47225;SDS011;32965;64.142;-21.912;2024-01-27T20:25:36;11.33;;;3.53;;
47225;SDS011;32965;64.142;-21.912;2024-01-27T20:28:02;11.60;;;3.70;;
47225;SDS011;32965;64.142;-21.912;2024-01-27T20:30:28;7.67;;;2.80;;
47225;SDS011;32965;64.142;-21.912;2024-01-27T20:32:54;4.87;;;1.83;;
47225;SDS011;32965;64.142;-21.912;2024-01-27T20:35:31;5.55;;;2.03;;
47225;SDS011;32965;64.142;-21.912;2024-01-27T20:37:57;8.83;;;2.40;;
47225;SDS011;32965;64.142;-21.912;2024-01-27T20:40:24;4.63;;;1.60;;
47225;SDS011;32965;64.142;-21.912;2024-01-27T20:42:52;2.90;;;1.13;;
47225;SDS011;32965;64.142;-21.912;2024-01-27T20:45:18;3.47;;;1.40;;
47225;SDS011;32965;64.142;-21.912;2024-01-27T20:47:43;4.67;;;1.60;;
47225;SDS011;32965;64.142;-21.912;2024-01-27T20:50:11;8.07;;;2.30;;
47225;SDS011;32965;64.142;-21.912;2024-01-27T20:52:36;11.33;;;4.60;;
47225;SDS011;32965;64.142;-21.912;2024-01-27T20:55:02;5.30;;;2.00;;
47225;SDS011;32965;64.142;-21.912;2024-01-27T20:57:28;5.40;;;2.23;;
47225;SDS011;32965;64.142;-21.912;2024-01-27T20:59:54;5.93;;;2.20;;
47225;SDS011;32965;64.142;-21.912;2024-01-27T21:02:20;8.50;;;2.20;;
47225;SDS011;32965;64.142;-21.912;2024-01-27T21:04:46;7.60;;;2.03;;
47225;SDS011;32965;64.142;-21.912;2024-01-27T21:07:12;9.30;;;1.97;;
47225;SDS011;32965;64.142;-21.912;2024-01-27T21:09:43;6.23;;;1.97;;
47225;SDS011;32965;64.142;-21.912;2024-01-27T21:12:08;5.50;;;1.73;;
47225;SDS011;32965;64.142;-21.912;2024-01-27T21:14:34;7.53;;;1.77;;
47225;SDS011;32965;64.142;-21.912;2024-01-27T21:17:00;3.87;;;1.30;;
47225;SDS011;32965;64.142;-21.912;2024-01-27T21:19:26;4.17;;;1.33;;
47225;SDS011;32965;64.142;-21.912;2024-01-27T21:21:52;6.60;;;1.10;;
47225;SDS011;32965;64.142;-21.912;2024-01-27T21:24:18;5.20;;;1.87;;
47225;SDS011;32965;64.142;-21.912;2024-01-27T21:26:43;8.10;;;1.70;;
47225;SDS011;32965;64.142;-21.912;2024-01-27T21:29:10;8.23;;;1.53;;
47225;SDS011;32965;64.142;-21.912;2024-01-27T21:31:36;11.53;;;2.13;;
47225;SDS011;32965;64.142;-21.912;2024-01-27T21:34:02;5.40;;;2.00;;
47225;SDS011;32965;64.142;-21.912;2024-01-27T21:36:28;12.43;;;1.70;;
47225;SDS011;32965;64.142;-21.912;2024-01-27T21:38:54;9.90;;;2.97;;
47225;SDS011;32965;64.142;-21.912;2024-01-27T21:41:22;8.27;;;1.75;;
47225;SDS011;32965;64.142;-21.912;2024-01-27T21:43:47;9.83;;;1.70;;
47225;SDS011;32965;64.142;-21.912;2024-01-27T21:46:14;5.97;;;1.67;;
47225;SDS011;32965;64.142;-21.912;2024-01-27T21:48:40;9.50;;;1.87;;
47225;SDS011;32965;64.142;-21.912;2024-01-27T21:53:39;9.20;;;2.60;;
47225;SDS011;32965;64.142;-21.912;2024-01-27T21:56:07;5.70;;;1.93;;
47225;SDS011;32965;64.142;-21.912;2024-01-27T21:58:33;10.83;;;1.60;;
47225;SDS011;32965;64.142;-21.912;2024-01-27T22:01:00;11.40;;;1.87;;
47225;SDS011;32965;64.142;-21.912;2024-01-27T22:03:25;9.37;;;2.20;;
47225;SDS011;32965;64.142;-21.912;2024-01-27T22:05:51;7.40;;;2.03;;
47225;SDS011;32965;64.142;-21.912;2024-01-27T22:08:17;9.10;;;1.37;;
47225;SDS011;32965;64.142;-21.912;2024-01-27T22:10:43;7.10;;;1.00;;
47225;SDS011;32965;64.142;-21.912;2024-01-27T22:13:10;3.50;;;1.10;;
47225;SDS011;32965;64.142;-21.912;2024-01-27T22:15:36;3.77;;;0.63;;
47225;SDS011;32965;64.142;-21.912;2024-01-27T22:18:08;4.05;;;0.90;;
47225;SDS011;32965;64.142;-21.912;2024-01-27T22:20:33;3.47;;;0.90;;
47225;SDS011;32965;64.142;-21.912;2024-01-27T22:22:59;2.83;;;0.67;;
47225;SDS011;32965;64.142;-21.912;2024-01-27T22:25:25;3.17;;;0.60;;
47225;SDS011;32965;64.142;-21.912;2024-01-27T22:27:51;2.47;;;0.40;;
47225;SDS011;32965;64.142;-21.912;2024-01-27T22:30:16;3.47;;;0.33;;
47225;SDS011;32965;64.142;-21.912;2024-01-27T22:32:42;2.80;;;0.60;;
47225;SDS011;32965;64.142;-21.912;2024-01-27T22:35:08;2.97;;;0.73;;
47225;SDS011;32965;64.142;-21.912;2024-01-27T22:37:40;4.37;;;0.80;;
47225;SDS011;32965;64.142;-21.912;2024-01-27T22:40:06;5.77;;;0.90;;
47225;SDS011;32965;64.142;-21.912;2024-01-27T22:42:32;4.93;;;0.87;;
47225;SDS011;32965;64.142;-21.912;2024-01-27T22:44:58;4.57;;;0.80;;
47225;SDS011;32965;64.142;-21.912;2024-01-27T22:47:24;6.20;;;0.60;;
47225;SDS011;32965;64.142;-21.912;2024-01-27T22:49:50;3.20;;;0.47;;
47225;SDS011;32965;64.142;-21.912;2024-01-27T22:52:16;7.87;;;0.70;;
47225;SDS011;32965;64.142;-21.912;2024-01-27T22:54:41;6.70;;;0.90;;
47225;SDS011;32965;64.142;-21.912;2024-01-27T22:57:08;2.43;;;0.77;;
47225;SDS011;32965;64.142;-21.912;2024-01-27T22:59:36;4.67;;;0.67;;
47225;SDS011;32965;64.142;-21.912;2024-01-27T23:02:02;1.97;;;0.47;;
47225;SDS011;32965;64.142;-21.912;2024-01-27T23:04:28;4.20;;;0.77;;
47225;SDS011;32965;64.142;-21.912;2024-01-27T23:06:54;7.80;;;1.23;;
47225;SDS011;32965;64.142;-21.912;2024-01-27T23:09:20;3.43;;;1.20;;
47225;SDS011;32965;64.142;-21.912;2024-01-27T23:11:46;5.60;;;1.10;;
47225;SDS011;32965;64.142;-21.912;2024-01-27T23:14:11;2.50;;;0.60;;
47225;SDS011;32965;64.142;-21.912;2024-01-27T23:16:37;5.00;;;1.07;;
47225;SDS011;32965;64.142;-21.912;2024-01-27T23:19:03;5.33;;;0.97;;
47225;SDS011;32965;64.142;-21.912;2024-01-27T23:21:29;6.13;;;0.60;;
47225;SDS011;32965;64.142;-21.912;2024-01-27T23:23:54;5.67;;;0.97;;
47225;SDS011;32965;64.142;-21.912;2024-01-27T23:26:21;6.17;;;1.37;;
47225;SDS011;32965;64.142;-21.912;2024-01-27T23:28:47;3.53;;;0.90;;
47225;SDS011;32965;64.142;-21.912;2024-01-27T23:31:13;3.60;;;0.73;;
47225;SDS011;32965;64.142;-21.912;2024-01-27T23:33:39;3.73;;;1.00;;
47225;SDS011;32965;64.142;-21.912;2024-01-27T23:36:05;4.23;;;1.17;;
47225;SDS011;32965;64.142;-21.912;2024-01-27T23:38:31;10.70;;;1.20;;
47225;SDS011;32965;64.142;-21.912;2024-01-27T23:40:56;4.30;;;1.17;;
47225;SDS011;32965;64.142;-21.912;2024-01-27T23:43:22;3.80;;;0.80;;
47225;SDS011;32965;64.142;-21.912;2024-01-27T23:45:48;6.33;;;1.67;;
47225;SDS011;32965;64.142;-21.912;2024-01-27T23:48:14;3.97;;;0.93;;
47225;SDS011;32965;64.142;-21.912;2024-01-27T23:50:40;3.93;;;1.23;;
47225;SDS011;32965;64.142;-21.912;2024-01-27T23:53:06;4.10;;;0.90;;
47225;SDS011;32965;64.142;-21.912;2024-01-27T23:55:36;8.07;;;1.37;;
47225;SDS011;32965;64.142;-21.912;2024-01-27T23:58:09;4.90;;;0.90;;
